createdAt,value
2023-03-11T00:00:23.569Z,4.60
2023-03-11T00:02:52.151Z,4.50
2023-03-11T00:05:27.907Z,4.40
2023-03-11T00:07:55.360Z,4.30
2023-03-11T00:10:30.799Z,4.20
2023-03-11T00:12:59.036Z,4.20
2023-03-11T00:15:26.990Z,4.20
2023-03-11T00:17:54.261Z,4.10
2023-03-11T00:20:22.702Z,4.00
2023-03-11T00:22:51.196Z,4.00
2023-03-11T00:25:19.065Z,3.90
2023-03-11T00:27:46.416Z,4.00
2023-03-11T00:30:14.404Z,3.90
2023-03-11T00:32:41.764Z,4.00
2023-03-11T00:35:12.987Z,3.90
2023-03-11T00:37:40.529Z,3.90
2023-03-11T00:40:10.986Z,3.90
2023-03-11T00:42:38.321Z,3.80
2023-03-11T00:45:06.173Z,3.90
2023-03-11T00:47:33.508Z,3.90
2023-03-11T00:50:00.850Z,3.90
2023-03-11T00:52:28.997Z,3.90
2023-03-11T00:54:56.433Z,3.90
2023-03-11T00:57:23.883Z,3.90
2023-03-11T00:59:51.301Z,3.80
2023-03-11T01:02:18.642Z,3.80
2023-03-11T01:04:45.958Z,3.70
2023-03-11T01:07:13.569Z,3.70
2023-03-11T01:09:40.876Z,3.70
2023-03-11T01:12:08.474Z,3.60
2023-03-11T01:14:35.775Z,3.60
2023-03-11T01:17:03.077Z,3.60
2023-03-11T01:19:30.389Z,3.50
2023-03-11T01:21:57.688Z,3.60
2023-03-11T01:24:24.994Z,3.60
2023-03-11T01:26:52.271Z,3.60
2023-03-11T01:29:19.576Z,3.60
2023-03-11T01:31:46.878Z,3.60
2023-03-11T01:34:14.177Z,3.60
2023-03-11T01:36:42.058Z,3.60
2023-03-11T01:39:09.394Z,3.60
2023-03-11T01:41:36.731Z,3.50
2023-03-11T01:44:05.157Z,3.50
2023-03-11T01:46:52.523Z,3.50
2023-03-11T01:49:23.234Z,3.50
2023-03-11T01:52:07.636Z,3.50
2023-03-11T01:54:39.467Z,3.50
2023-03-11T01:57:10.026Z,3.50
2023-03-11T01:59:39.752Z,3.40
2023-03-11T02:02:11.998Z,3.40
2023-03-11T02:04:41.291Z,3.40
2023-03-11T02:07:09.555Z,3.40
2023-03-11T02:09:37.048Z,3.40
2023-03-11T02:12:04.864Z,3.40
2023-03-11T02:14:32.356Z,3.40
2023-03-11T02:16:59.670Z,3.30
2023-03-11T02:19:52.829Z,3.30
2023-03-11T02:22:20.198Z,3.30
2023-03-11T02:25:06.184Z,3.30
2023-03-11T02:27:33.914Z,3.30
2023-03-11T02:30:04.538Z,3.20
2023-03-11T02:32:35.281Z,3.20
2023-03-11T02:35:02.626Z,3.20
2023-03-11T02:37:29.981Z,3.20
2023-03-11T02:40:22.396Z,3.20
2023-03-11T02:42:51.751Z,3.10
2023-03-11T02:45:19.782Z,3.10
2023-03-11T02:47:47.324Z,3.10
2023-03-11T02:50:15.889Z,3.10
2023-03-11T02:52:45.002Z,3.00
2023-03-11T02:55:12.344Z,3.10
2023-03-11T02:57:40.654Z,3.00
2023-03-11T03:00:15.015Z,3.00
2023-03-11T03:02:46.547Z,3.00
2023-03-11T03:05:14.352Z,3.00
2023-03-11T03:07:42.356Z,3.00
2023-03-11T03:10:10.593Z,3.00
2023-03-11T03:12:37.938Z,3.00
2023-03-11T03:15:05.838Z,3.00
2023-03-11T03:17:33.263Z,3.00
2023-03-11T03:20:00.623Z,3.00
2023-03-11T03:22:29.442Z,3.00
2023-03-11T03:24:57.409Z,2.90
2023-03-11T03:27:24.864Z,2.90
2023-03-11T03:29:52.754Z,2.90
2023-03-11T03:32:20.484Z,2.90
2023-03-11T03:34:47.821Z,2.90
2023-03-11T03:37:15.948Z,2.90
2023-03-11T03:39:43.339Z,2.90
2023-03-11T03:42:12.429Z,2.90
2023-03-11T03:44:41.301Z,2.80
2023-03-11T03:47:09.096Z,2.80
2023-03-11T03:49:36.479Z,2.80
2023-03-11T03:52:06.250Z,2.70
2023-03-11T03:54:34.742Z,2.70
2023-03-11T03:57:02.922Z,2.70
2023-03-11T03:59:31.925Z,2.70
2023-03-11T04:02:00.700Z,2.70
2023-03-11T04:04:30.609Z,2.70
2023-03-11T04:06:58.507Z,2.70
2023-03-11T04:09:26.047Z,2.70
2023-03-11T04:11:53.668Z,2.70
2023-03-11T04:14:21.300Z,2.70
2023-03-11T04:16:54.569Z,2.70
2023-03-11T04:19:22.118Z,2.70
2023-03-11T04:21:51.762Z,2.70
2023-03-11T04:24:20.275Z,2.80
2023-03-11T04:26:48.462Z,2.80
2023-03-11T04:29:17.969Z,2.80
2023-03-11T04:31:49.413Z,2.70
2023-03-11T04:34:17.300Z,2.70
2023-03-11T04:36:44.857Z,2.70
2023-03-11T04:39:15.217Z,2.80
2023-03-11T04:41:44.344Z,2.80
2023-03-11T04:44:16.250Z,2.70
2023-03-11T04:46:43.850Z,2.80
2023-03-11T04:49:11.560Z,2.80
2023-03-11T04:51:38.905Z,2.80
2023-03-11T04:54:07.686Z,2.90
2023-03-11T04:56:35.292Z,2.80
2023-03-11T04:59:03.846Z,2.90
2023-03-11T05:01:33.269Z,2.90
2023-03-11T05:04:04.002Z,2.90
2023-03-11T05:06:31.490Z,2.90
2023-03-11T05:09:00.112Z,3.00
2023-03-11T05:11:27.988Z,3.00
2023-03-11T05:13:55.455Z,3.00
2023-03-11T05:16:22.901Z,3.00
2023-03-11T05:18:50.340Z,3.00
2023-03-11T05:21:17.992Z,3.00
2023-03-11T05:23:45.483Z,3.00
2023-03-11T05:26:14.394Z,3.00
2023-03-11T05:28:43.946Z,3.00
2023-03-11T05:31:11.708Z,3.00
2023-03-11T05:33:39.715Z,3.00
2023-03-11T05:36:10.604Z,3.10
2023-03-11T05:38:41.601Z,3.10
2023-03-11T05:41:09.436Z,3.10
2023-03-11T05:43:37.293Z,3.00
2023-03-11T05:46:05.254Z,3.00
2023-03-11T05:48:33.010Z,2.90
2023-03-11T05:51:00.781Z,2.90
2023-03-11T05:53:28.257Z,2.90
2023-03-11T05:55:57.484Z,2.80
2023-03-11T05:58:27.166Z,2.80
2023-03-11T06:00:54.753Z,2.80
2023-03-11T06:03:22.764Z,2.80
2023-03-11T06:05:50.590Z,2.80
2023-03-11T06:08:18.928Z,2.70
2023-03-11T06:10:48.817Z,2.80
2023-03-11T06:13:16.852Z,2.80
2023-03-11T06:15:49.558Z,2.80
2023-03-11T06:18:17.114Z,2.80
2023-03-11T06:20:44.598Z,2.80
2023-03-11T06:23:11.979Z,2.80
2023-03-11T06:25:39.331Z,2.80
2023-03-11T06:28:07.264Z,2.70
2023-03-11T06:30:34.726Z,2.70
2023-03-11T06:33:08.660Z,2.70
2023-03-11T06:35:36.007Z,2.70
2023-03-11T06:38:03.419Z,2.70
2023-03-11T06:40:30.751Z,2.70
2023-03-11T06:42:58.070Z,2.70
2023-03-11T06:45:26.865Z,2.70
2023-03-11T06:47:54.210Z,2.70
2023-03-11T06:50:24.045Z,2.80
2023-03-11T06:52:52.834Z,2.80
2023-03-11T06:55:21.191Z,2.70
2023-03-11T06:57:48.586Z,2.70
2023-03-11T07:00:16.546Z,2.70
2023-03-11T07:02:48.927Z,2.70
2023-03-11T07:05:17.673Z,2.60
2023-03-11T07:07:45.056Z,2.60
2023-03-11T07:10:12.583Z,2.60
2023-03-11T07:12:40.114Z,2.60
2023-03-11T07:15:08.731Z,2.50
2023-03-11T07:17:36.621Z,2.50
2023-03-11T07:20:04.596Z,2.50
2023-03-11T07:22:31.896Z,2.50
2023-03-11T07:24:59.473Z,2.60
2023-03-11T07:27:27.817Z,2.70
2023-03-11T07:29:55.133Z,2.70
2023-03-11T07:32:22.514Z,2.80
2023-03-11T07:34:49.908Z,2.80
2023-03-11T07:37:17.778Z,2.80
2023-03-11T07:39:45.185Z,2.70
2023-03-11T07:42:12.486Z,2.70
2023-03-11T07:44:39.793Z,2.70
2023-03-11T07:47:07.329Z,2.70
2023-03-11T07:49:36.331Z,2.80
2023-03-11T07:52:03.947Z,2.80
2023-03-11T07:54:31.260Z,2.80
2023-03-11T07:56:58.598Z,2.90
2023-03-11T07:59:26.348Z,2.90
2023-03-11T08:01:53.675Z,2.90
2023-03-11T08:04:20.953Z,3.00
2023-03-11T08:06:48.719Z,3.10
2023-03-11T08:09:16.057Z,3.10
2023-03-11T08:11:43.447Z,3.10
2023-03-11T08:14:10.866Z,3.00
2023-03-11T08:16:39.988Z,2.90
2023-03-11T08:19:07.361Z,3.00
2023-03-11T08:21:34.743Z,3.00
2023-03-11T08:24:02.618Z,3.00
2023-03-11T08:26:30.603Z,3.00
2023-03-11T08:28:58.425Z,3.10
2023-03-11T08:31:30.456Z,3.10
2023-03-11T08:34:03.079Z,3.20
2023-03-11T08:36:30.912Z,3.30
2023-03-11T08:38:58.484Z,3.40
2023-03-11T08:41:26.286Z,3.60
2023-03-11T08:43:53.591Z,3.70
2023-03-11T08:46:23.918Z,3.70
2023-03-11T08:48:52.884Z,3.80
2023-03-11T08:51:20.394Z,3.90
2023-03-11T08:53:47.939Z,4.00
2023-03-11T08:56:15.246Z,4.00
2023-03-11T08:58:42.564Z,4.10
2023-03-11T09:01:10.925Z,4.30
2023-03-11T09:03:38.692Z,4.30
2023-03-11T09:06:08.204Z,4.40
2023-03-11T09:08:35.615Z,4.50
2023-03-11T09:11:02.978Z,4.60
2023-03-11T09:13:30.397Z,4.60
2023-03-11T09:15:57.737Z,4.70
2023-03-11T09:18:25.084Z,4.70
2023-03-11T09:20:52.427Z,4.60
2023-03-11T09:23:19.850Z,4.60
2023-03-11T09:25:47.230Z,4.60
2023-03-11T09:28:14.512Z,4.60
2023-03-11T09:30:41.909Z,4.70
2023-03-11T09:33:09.231Z,4.80
2023-03-11T09:35:38.686Z,4.90
2023-03-11T09:38:05.982Z,4.90
2023-03-11T09:40:54.986Z,4.90
2023-03-11T09:44:07.551Z,5.00
2023-03-11T09:46:37.823Z,5.20
2023-03-11T09:49:36.400Z,5.30
2023-03-11T09:52:11.407Z,5.40
2023-03-11T09:54:43.213Z,5.40
2023-03-11T09:57:16.876Z,5.40
2023-03-11T09:59:44.248Z,5.50
2023-03-11T10:02:15.068Z,5.60
2023-03-11T10:04:45.537Z,5.60
2023-03-11T10:07:15.560Z,5.60
2023-03-11T10:09:52.666Z,5.70
2023-03-11T10:12:36.561Z,5.70
2023-03-11T10:15:26.944Z,5.70
2023-03-11T10:18:16.081Z,5.70
2023-03-11T10:21:05.950Z,5.70
2023-03-11T10:24:04.314Z,5.70
2023-03-11T10:26:34.335Z,5.70
2023-03-11T10:29:37.030Z,5.90
2023-03-11T10:32:33.563Z,6.00
2023-03-11T10:35:00.898Z,6.10
2023-03-11T10:37:46.574Z,6.40
2023-03-11T10:40:44.957Z,6.40
2023-03-11T10:43:17.524Z,6.30
2023-03-11T10:45:46.269Z,6.30
2023-03-11T10:48:15.265Z,6.40
2023-03-11T10:50:46.026Z,6.30
2023-03-11T10:53:17.809Z,6.20
2023-03-11T10:56:04.602Z,6.20
2023-03-11T10:58:31.974Z,6.20
2023-03-11T11:01:04.916Z,6.20
2023-03-11T11:03:32.325Z,6.20
2023-03-11T11:06:00.600Z,6.30
2023-03-11T11:08:28.299Z,6.30
2023-03-11T11:10:57.485Z,6.20
2023-03-11T11:13:31.132Z,6.10
2023-03-11T11:16:18.618Z,6.10
2023-03-11T11:18:49.449Z,6.10
2023-03-11T11:21:38.245Z,6.10
2023-03-11T11:24:27.315Z,6.10
2023-03-11T11:27:13.021Z,6.00
2023-03-11T11:29:40.338Z,5.80
2023-03-11T11:32:34.959Z,5.80
2023-03-11T11:35:03.366Z,5.70
2023-03-11T11:37:32.928Z,5.70
2023-03-11T11:40:11.709Z,5.80
2023-03-11T11:42:40.513Z,5.90
2023-03-11T11:45:22.233Z,6.00
2023-03-11T11:47:52.532Z,5.80
2023-03-11T11:50:45.402Z,5.70
2023-03-11T11:53:23.666Z,5.60
2023-03-11T11:55:53.047Z,5.60
2023-03-11T11:58:20.988Z,5.50
2023-03-11T12:00:48.257Z,5.50
2023-03-11T12:03:36.999Z,5.60
2023-03-11T12:06:16.790Z,5.80
2023-03-11T12:08:56.217Z,5.90
2023-03-11T12:11:34.804Z,6.10
2023-03-11T12:14:05.649Z,6.20
2023-03-11T12:16:41.927Z,6.40
2023-03-11T12:19:12.095Z,6.50
2023-03-11T12:21:51.679Z,6.60
2023-03-11T12:24:44.946Z,6.80
2023-03-11T12:27:41.142Z,6.90
2023-03-11T12:30:23.446Z,6.80
2023-03-11T12:32:59.127Z,6.70
2023-03-11T12:35:30.238Z,6.70
2023-03-11T12:37:59.431Z,6.80
2023-03-11T12:40:45.540Z,6.90
2023-03-11T12:43:33.441Z,6.80
2023-03-11T12:46:01.235Z,6.80
2023-03-11T12:48:28.597Z,6.80
2023-03-11T12:50:57.406Z,6.70
2023-03-11T12:53:47.940Z,6.70
2023-03-11T12:56:53.504Z,6.60
2023-03-11T12:59:30.880Z,6.60
2023-03-11T13:02:13.446Z,6.70
2023-03-11T13:05:11.914Z,6.80
2023-03-11T13:07:48.891Z,6.90
2023-03-11T13:10:21.571Z,6.80
2023-03-11T13:12:49.813Z,6.80
2023-03-11T13:15:20.128Z,6.90
2023-03-11T13:18:01.434Z,7.00
2023-03-11T13:20:44.090Z,6.90
2023-03-11T13:23:14.772Z,6.80
2023-03-11T13:26:24.762Z,6.70
2023-03-11T13:29:01.795Z,6.60
2023-03-11T13:32:02.800Z,6.60
2023-03-11T13:34:54.201Z,6.50
2023-03-11T13:37:33.945Z,6.40
2023-03-11T13:40:28.813Z,6.20
2023-03-11T13:42:56.972Z,6.20
2023-03-11T13:45:30.194Z,6.20
2023-03-11T13:48:22.006Z,6.30
2023-03-11T13:50:55.647Z,6.50
2023-03-11T13:53:27.918Z,6.60
2023-03-11T13:55:55.284Z,6.80
2023-03-11T13:58:24.298Z,6.90
2023-03-11T14:00:59.048Z,6.80
2023-03-11T14:03:28.664Z,6.80
2023-03-11T14:06:05.272Z,6.80
2023-03-11T14:08:35.027Z,6.80
2023-03-11T14:11:03.187Z,6.80
2023-03-11T14:13:38.507Z,6.90
2023-03-11T14:16:15.231Z,6.90
2023-03-11T14:18:43.883Z,6.80
2023-03-11T14:21:19.180Z,6.90
2023-03-11T14:23:47.870Z,6.90
2023-03-11T14:26:19.177Z,7.10
2023-03-11T14:28:54.462Z,7.10
2023-03-11T14:31:32.841Z,7.10
2023-03-11T14:34:04.666Z,7.10
2023-03-11T14:36:48.581Z,7.10
2023-03-11T14:39:36.150Z,7.10
2023-03-11T14:42:18.790Z,7.10
2023-03-11T14:45:10.426Z,8.50
2023-03-11T14:47:46.699Z,10.00
2023-03-11T14:50:16.965Z,9.90
2023-03-11T14:52:59.285Z,9.50
2023-03-11T14:55:35.096Z,9.10
2023-03-11T14:58:35.856Z,8.70
2023-03-11T15:01:13.738Z,8.30
2023-03-11T15:03:52.504Z,8.00
2023-03-11T15:06:20.946Z,7.90
2023-03-11T15:08:52.766Z,7.80
2023-03-11T15:11:25.220Z,7.70
2023-03-11T15:13:52.793Z,7.60
2023-03-11T15:16:26.111Z,7.40
2023-03-11T15:18:54.614Z,7.20
2023-03-11T15:21:23.306Z,7.10
2023-03-11T15:24:12.142Z,7.10
2023-03-11T15:26:39.612Z,7.00
2023-03-11T15:29:16.793Z,7.00
2023-03-11T15:31:47.870Z,7.10
2023-03-11T15:34:18.334Z,7.10
2023-03-11T15:36:48.672Z,7.10
2023-03-11T15:39:25.452Z,7.10
2023-03-11T15:42:02.027Z,7.00
2023-03-11T15:44:41.798Z,7.00
2023-03-11T15:47:20.171Z,6.90
2023-03-11T15:49:47.527Z,6.80
2023-03-11T15:52:15.139Z,6.70
2023-03-11T15:54:47.429Z,6.70
2023-03-11T15:57:27.295Z,6.50
2023-03-11T15:59:55.858Z,6.50
2023-03-11T16:02:25.086Z,6.50
2023-03-11T16:04:52.541Z,6.50
2023-03-11T16:07:32.798Z,6.50
2023-03-11T16:10:06.726Z,6.40
2023-03-11T16:12:34.276Z,6.30
2023-03-11T16:15:01.634Z,6.20
2023-03-11T16:17:43.057Z,6.30
2023-03-11T16:20:16.491Z,6.20
2023-03-11T16:22:43.847Z,6.20
2023-03-11T16:25:24.253Z,6.20
2023-03-11T16:27:52.144Z,6.20
2023-03-11T16:30:19.681Z,6.10
2023-03-11T16:32:47.232Z,6.00
2023-03-11T16:35:14.748Z,6.00
2023-03-11T16:37:43.380Z,5.90
2023-03-11T16:40:19.354Z,5.70
2023-03-11T16:42:46.913Z,5.70
2023-03-11T16:45:15.224Z,5.60
2023-03-11T16:47:42.548Z,5.50
2023-03-11T16:50:10.781Z,5.40
2023-03-11T16:52:38.407Z,5.30
2023-03-11T16:55:06.198Z,5.40
2023-03-11T16:57:33.597Z,5.40
2023-03-11T17:00:01.087Z,5.50
2023-03-11T17:02:28.392Z,5.50
2023-03-11T17:04:55.994Z,5.50
2023-03-11T17:07:24.199Z,5.50
2023-03-11T17:09:51.753Z,5.50
2023-03-11T17:12:19.263Z,5.60
2023-03-11T17:14:46.679Z,5.50
2023-03-11T17:17:14.054Z,5.50
2023-03-11T17:19:41.397Z,5.50
2023-03-11T17:22:08.731Z,5.50
2023-03-11T17:24:36.547Z,5.40
2023-03-11T17:27:04.501Z,5.30
2023-03-11T17:29:32.099Z,5.20
2023-03-11T17:31:59.952Z,5.10
2023-03-11T17:34:27.472Z,5.10
2023-03-11T17:36:55.032Z,5.00
2023-03-11T17:39:22.360Z,5.00
2023-03-11T17:41:49.724Z,5.00
2023-03-11T17:44:17.059Z,5.00
2023-03-11T17:46:44.438Z,5.00
2023-03-11T17:49:13.519Z,5.00
2023-03-11T17:51:40.890Z,5.00
2023-03-11T17:54:08.177Z,5.10
2023-03-11T17:56:35.644Z,5.00
2023-03-11T17:59:03.020Z,5.00
2023-03-11T18:01:30.631Z,5.00
2023-03-11T18:03:58.146Z,4.90
2023-03-11T18:06:25.507Z,4.80
2023-03-11T18:08:52.820Z,4.80
2023-03-11T18:11:22.678Z,4.70
2023-03-11T18:13:50.252Z,4.70
2023-03-11T18:16:19.609Z,4.60
2023-03-11T18:18:47.397Z,4.50
2023-03-11T18:21:21.474Z,4.40
2023-03-11T18:23:48.901Z,4.30
2023-03-11T18:26:17.382Z,4.30
2023-03-11T18:28:44.862Z,4.30
2023-03-11T18:31:19.629Z,4.40
2023-03-11T18:33:48.637Z,4.40
2023-03-11T18:36:17.645Z,4.30
2023-03-11T18:38:45.057Z,4.30
2023-03-11T18:41:12.450Z,4.30
2023-03-11T18:43:39.787Z,4.20
2023-03-11T18:46:10.778Z,4.20
2023-03-11T18:48:38.187Z,4.20
2023-03-11T18:51:07.028Z,4.20
2023-03-11T18:53:34.695Z,4.20
2023-03-11T18:56:06.679Z,4.20
2023-03-11T18:58:34.047Z,4.20
2023-03-11T19:01:27.768Z,4.20
2023-03-11T19:03:59.017Z,4.20
2023-03-11T19:06:27.097Z,4.20
2023-03-11T19:08:54.631Z,4.20
2023-03-11T19:11:22.970Z,4.10
2023-03-11T19:13:50.538Z,4.10
2023-03-11T19:16:20.096Z,4.00
2023-03-11T19:18:47.517Z,4.10
2023-03-11T19:21:15.138Z,4.00
2023-03-11T19:23:42.765Z,4.00
2023-03-11T19:26:10.077Z,4.10
2023-03-11T19:28:37.424Z,4.10
2023-03-11T19:31:05.325Z,4.10
2023-03-11T19:33:32.821Z,4.20
2023-03-11T19:36:01.720Z,4.20
2023-03-11T19:38:29.339Z,4.30
2023-03-11T19:41:07.765Z,4.30
2023-03-11T19:43:35.703Z,4.30
2023-03-11T19:46:06.683Z,4.40
2023-03-11T19:48:34.216Z,4.40
2023-03-11T19:51:02.497Z,4.40
2023-03-11T19:53:29.877Z,4.50
2023-03-11T19:55:57.431Z,4.50
2023-03-11T19:58:28.623Z,4.40
2023-03-11T20:00:58.305Z,4.30
2023-03-11T20:03:25.811Z,4.30
2023-03-11T20:05:54.721Z,4.30
2023-03-11T20:08:23.227Z,4.30
2023-03-11T20:10:51.418Z,4.30
2023-03-11T20:13:20.291Z,4.30
2023-03-11T20:15:47.684Z,4.20
2023-03-11T20:18:15.512Z,4.20
2023-03-11T20:20:44.417Z,4.20
2023-03-11T20:23:12.072Z,4.20
2023-03-11T20:25:40.268Z,4.20
2023-03-11T20:28:07.674Z,4.20
2023-03-11T20:30:35.144Z,4.20
2023-03-11T20:33:02.556Z,4.20
2023-03-11T20:35:30.018Z,4.20
2023-03-11T20:37:58.374Z,4.10
2023-03-11T20:40:25.783Z,4.10
2023-03-11T20:42:53.212Z,4.10
2023-03-11T20:45:23.447Z,4.10
2023-03-11T20:47:53.555Z,4.00
2023-03-11T20:50:21.787Z,4.00
2023-03-11T20:52:49.680Z,4.00
2023-03-11T20:55:17.131Z,4.00
2023-03-11T20:57:44.531Z,3.90
2023-03-11T21:00:13.248Z,3.90
2023-03-11T21:02:41.349Z,3.90
2023-03-11T21:05:09.524Z,3.90
2023-03-11T21:07:37.007Z,3.90
2023-03-11T21:10:05.640Z,3.90
2023-03-11T21:12:33.184Z,3.90
2023-03-11T21:15:00.671Z,3.90
2023-03-11T21:17:28.158Z,3.90
2023-03-11T21:19:55.636Z,3.90
2023-03-11T21:22:23.016Z,3.80
2023-03-11T21:24:54.053Z,3.80
2023-03-11T21:27:26.317Z,3.90
2023-03-11T21:29:57.258Z,3.90
2023-03-11T21:32:25.970Z,3.90
2023-03-11T21:34:57.562Z,4.00
2023-03-11T21:37:25.588Z,4.10
2023-03-11T21:39:53.119Z,4.10
2023-03-11T21:42:20.803Z,4.10
2023-03-11T21:44:48.244Z,4.10
2023-03-11T21:47:15.672Z,4.10
2023-03-11T21:49:43.137Z,4.10
2023-03-11T21:52:10.479Z,4.10
2023-03-11T21:54:37.882Z,4.10
2023-03-11T21:57:05.575Z,4.10
2023-03-11T21:59:33.169Z,4.10
2023-03-11T22:02:03.215Z,4.10
2023-03-11T22:04:31.438Z,4.10
2023-03-11T22:06:58.941Z,4.10
2023-03-11T22:09:26.471Z,4.10
2023-03-11T22:11:54.164Z,4.10
2023-03-11T22:14:21.811Z,4.10
2023-03-11T22:16:49.360Z,4.10
2023-03-11T22:19:16.906Z,4.10
2023-03-11T22:21:44.287Z,4.00
2023-03-11T22:24:11.580Z,4.00
2023-03-11T22:26:38.899Z,4.10
2023-03-11T22:29:07.890Z,4.00
2023-03-11T22:31:36.212Z,4.00
2023-03-11T22:34:03.513Z,4.00
2023-03-11T22:36:30.899Z,4.00
2023-03-11T22:38:58.278Z,3.90
2023-03-11T22:41:25.643Z,3.90
2023-03-11T22:43:52.972Z,3.90
2023-03-11T22:46:20.362Z,3.90
2023-03-11T22:48:47.700Z,4.00
2023-03-11T22:51:15.064Z,3.90
2023-03-11T22:53:42.415Z,3.90
2023-03-11T22:56:11.845Z,3.90
2023-03-11T22:58:39.216Z,3.90
2023-03-11T23:01:06.790Z,3.90
2023-03-11T23:03:34.686Z,3.90
2023-03-11T23:06:03.237Z,3.90
2023-03-11T23:08:30.777Z,3.90
2023-03-11T23:11:01.884Z,3.90
2023-03-11T23:13:30.503Z,3.90
2023-03-11T23:16:02.345Z,3.90
2023-03-11T23:18:29.611Z,3.80
2023-03-11T23:20:56.925Z,3.90
2023-03-11T23:23:24.216Z,3.80
2023-03-11T23:25:51.615Z,3.80
2023-03-11T23:28:18.945Z,3.80
2023-03-11T23:30:46.225Z,3.80
2023-03-11T23:33:13.800Z,3.90
2023-03-11T23:35:44.382Z,4.00
2023-03-11T23:38:11.701Z,4.00
2023-03-11T23:40:40.886Z,4.00
2023-03-11T23:43:08.234Z,4.00
2023-03-11T23:45:35.619Z,3.90
2023-03-11T23:48:02.884Z,3.90
2023-03-11T23:50:30.215Z,3.80
2023-03-11T23:52:57.508Z,3.80
2023-03-11T23:55:24.800Z,3.80
2023-03-11T23:57:52.116Z,3.90
